Time;durP1;ratioP1;P1;durP2;ratioP2;P2;SDS_P1;SDS_P2;PMS_P1;PMS_P2;Temp;Humidity;BMP_temperature;BMP_pressure;BME280_temperature;BME280_humidity;BME280_pressure;Samples;Min_cycle;Max_cycle;Signal;HPM_P1;HPM_P2
2023/03/09 00:00:10;;;;;;;0.38;0.35;;;;;;;;;;5086566;28;20032;-82
2023/03/09 00:02:36;;;;;;;1.00;0.77;;;;;;;;;;5085483;28;20032;-81
2023/03/09 00:05:01;;;;;;;1.63;0.60;;;;;;;;;;5084925;28;20278;-82
2023/03/09 00:07:30;;;;;;;0.50;0.50;;;;;;;;;;5090392;28;20024;-82
2023/03/09 00:09:56;;;;;;;0.35;0.30;;;;;;;;;;5085502;28;20052;-82
2023/03/09 00:12:22;;;;;;;1.05;0.60;;;;;;;;;;5091194;28;20039;-83
2023/03/09 00:14:52;;;;;;;0.63;0.40;;;;;;;;;;5085300;28;20030;-83
2023/03/09 00:17:17;;;;;;;0.93;0.63;;;;;;;;;;5086657;28;20085;-81
2023/03/09 00:19:42;;;;;;;0.43;0.40;;;;;;;;;;5087385;28;20031;-83
2023/03/09 00:22:08;;;;;;;0.63;0.57;;;;;;;;;;5089804;28;20035;-83
2023/03/09 00:24:33;;;;;;;1.30;0.55;;;;;;;;;;5087210;28;20047;-84
2023/03/09 00:27:00;;;;;;;0.60;0.60;;;;;;;;;;5089305;28;20028;-84
2023/03/09 00:29:28;;;;;;;1.58;0.95;;;;;;;;;;5083830;28;20115;-83
2023/03/09 00:31:54;;;;;;;2.03;1.23;;;;;;;;;;5085131;28;20075;-85
2023/03/09 00:34:21;;;;;;;2.00;0.75;;;;;;;;;;5084104;28;20039;-84
2023/03/09 00:36:47;;;;;;;3.47;1.67;;;;;;;;;;5088766;28;20017;-85
2023/03/09 00:39:15;;;;;;;1.00;0.90;;;;;;;;;;5083738;28;20032;-85
2023/03/09 00:41:40;;;;;;;1.50;1.17;;;;;;;;;;5089129;28;20055;-85
2023/03/09 00:44:06;;;;;;;1.08;0.68;;;;;;;;;;5082411;28;20032;-84
2023/03/09 00:46:32;;;;;;;0.77;0.73;;;;;;;;;;5087110;28;20031;-85
2023/03/09 00:48:58;;;;;;;1.45;0.70;;;;;;;;;;5088572;28;20040;-85
2023/03/09 00:51:24;;;;;;;1.23;0.98;;;;;;;;;;5090627;28;20375;-85
2023/03/09 00:53:50;;;;;;;1.15;1.05;;;;;;;;;;5081819;28;20071;-84
2023/03/09 00:56:19;;;;;;;0.30;0.30;;;;;;;;;;5090900;28;20077;-83
2023/03/09 00:58:45;;;;;;;0.70;0.70;;;;;;;;;;5089127;28;20040;-84
2023/03/09 01:01:12;;;;;;;1.27;0.80;;;;;;;;;;5083624;28;20047;-83
2023/03/09 01:03:38;;;;;;;1.55;1.27;;;;;;;;;;5106422;27;20031;-83
2023/03/09 01:06:05;;;;;;;3.83;1.20;;;;;;;;;;5084064;28;20024;-82
2023/03/09 01:08:31;;;;;;;2.13;1.52;;;;;;;;;;5085106;28;20051;-83
2023/03/09 01:10:57;;;;;;;4.70;1.80;;;;;;;;;;5087668;28;20465;-84
2023/03/09 01:13:22;;;;;;;0.80;0.75;;;;;;;;;;5087828;28;20046;-84
2023/03/09 01:15:48;;;;;;;1.85;1.40;;;;;;;;;;5084034;28;20650;-87
2023/03/09 01:18:13;;;;;;;2.08;1.88;;;;;;;;;;5084731;28;20044;-84
2023/03/09 01:20:39;;;;;;;1.90;1.15;;;;;;;;;;5090881;28;20077;-86
2023/03/09 01:23:04;;;;;;;2.25;1.23;;;;;;;;;;5084890;28;20103;-85
2023/03/09 01:25:30;;;;;;;1.35;1.25;;;;;;;;;;5110730;28;20031;-85
2023/03/09 01:27:55;;;;;;;0.90;0.70;;;;;;;;;;5087918;28;20029;-84
2023/03/09 01:30:21;;;;;;;1.73;0.85;;;;;;;;;;5086811;28;20027;-86
2023/03/09 01:32:46;;;;;;;2.85;1.20;;;;;;;;;;5083399;28;20057;-85
2023/03/09 01:35:12;;;;;;;1.27;0.95;;;;;;;;;;5092578;28;20111;-85
2023/03/09 01:37:37;;;;;;;1.95;1.10;;;;;;;;;;5089947;28;20025;-85
2023/03/09 01:40:06;;;;;;;1.27;1.17;;;;;;;;;;5111396;28;20377;-85
2023/03/09 01:42:34;;;;;;;4.18;2.53;;;;;;;;;;5081886;28;20024;-85
2023/03/09 01:45:18;;;;;;;1.15;0.77;;;;;;;;;;5086413;28;20039;-86
2023/03/09 01:47:47;;;;;;;1.48;1.20;;;;;;;;;;5090172;28;20020;-85
2023/03/09 01:50:20;;;;;;;0.80;0.70;;;;;;;;;;5084192;28;20020;-85
2023/03/09 01:52:49;;;;;;;1.73;0.80;;;;;;;;;;5082588;28;20261;-85
2023/03/09 01:55:19;;;;;;;1.10;0.85;;;;;;;;;;5088147;28;20484;-86
2023/03/09 01:57:46;;;;;;;2.08;0.90;;;;;;;;;;5087178;28;20160;-84
2023/03/09 02:00:16;;;;;;;1.90;1.20;;;;;;;;;;5108441;28;20051;-84
2023/03/09 02:02:55;;;;;;;3.13;1.15;;;;;;;;;;5087410;28;20052;-84
2023/03/09 02:05:27;;;;;;;11.05;2.58;;;;;;;;;;5085214;28;20399;-83
2023/03/09 02:07:52;;;;;;;2.50;2.30;;;;;;;;;;5086055;28;20024;-84
2023/03/09 02:10:33;;;;;;;2.05;1.02;;;;;;;;;;5081584;28;20048;-88
2023/03/09 02:13:03;;;;;;;6.75;1.15;;;;;;;;;;5085064;28;20029;-84
2023/03/09 02:15:28;;;;;;;1.92;1.27;;;;;;;;;;5085669;28;20061;-85
2023/03/09 02:17:54;;;;;;;0.45;0.45;;;;;;;;;;5086251;28;20023;-85
2023/03/09 02:20:26;;;;;;;1.60;1.08;;;;;;;;;;5088881;28;20077;-83
2023/03/09 02:22:52;;;;;;;0.70;0.65;;;;;;;;;;5086357;28;20055;-83
2023/03/09 02:25:23;;;;;;;0.73;0.40;;;;;;;;;;5086025;28;20024;-84
2023/03/09 02:27:51;;;;;;;0.77;0.70;;;;;;;;;;5080099;28;20384;-84
2023/03/09 02:30:17;;;;;;;4.20;1.83;;;;;;;;;;5084652;28;20030;-83
2023/03/09 02:32:43;;;;;;;1.50;1.40;;;;;;;;;;5083999;28;20037;-84
2023/03/09 02:35:09;;;;;;;1.60;0.95;;;;;;;;;;5087675;28;20150;-84
2023/03/09 02:37:38;;;;;;;1.02;0.98;;;;;;;;;;5082785;28;20031;-82
2023/03/09 02:40:10;;;;;;;0.40;0.40;;;;;;;;;;5086644;28;20028;-83
2023/03/09 02:42:37;;;;;;;2.53;1.08;;;;;;;;;;5083521;28;20392;-82
2023/03/09 02:45:04;;;;;;;1.30;0.82;;;;;;;;;;5085108;28;20499;-82
2023/03/09 02:47:29;;;;;;;1.90;1.33;;;;;;;;;;5081861;28;20017;-82
2023/03/09 02:49:55;;;;;;;0.50;0.50;;;;;;;;;;5085726;28;20028;-82
2023/03/09 02:52:20;;;;;;;1.48;1.05;;;;;;;;;;5091181;28;20019;-85
2023/03/09 02:54:45;;;;;;;0.95;0.63;;;;;;;;;;5090443;28;20024;-84
2023/03/09 02:57:11;;;;;;;0.50;0.50;;;;;;;;;;5089635;28;20369;-84
2023/03/09 02:59:37;;;;;;;1.67;0.90;;;;;;;;;;5088955;28;20024;-85
2023/03/09 03:02:02;;;;;;;2.72;1.52;;;;;;;;;;5082076;28;20024;-84
2023/03/09 03:04:28;;;;;;;1.55;1.02;;;;;;;;;;5114862;28;20024;-84
2023/03/09 03:06:53;;;;;;;2.38;1.85;;;;;;;;;;5087737;28;20036;-84
2023/03/09 03:09:19;;;;;;;1.70;1.10;;;;;;;;;;5086383;28;20489;-85
2023/03/09 03:11:44;;;;;;;1.55;1.13;;;;;;;;;;5089865;28;20064;-84
2023/03/09 03:14:10;;;;;;;3.40;1.27;;;;;;;;;;5090617;28;20120;-83
2023/03/09 03:16:35;;;;;;;4.15;1.15;;;;;;;;;;5086544;28;20110;-84
2023/03/09 03:19:00;;;;;;;1.00;0.70;;;;;;;;;;5086204;28;20031;-84
2023/03/09 03:21:26;;;;;;;0.80;0.73;;;;;;;;;;5085085;28;20107;-84
2023/03/09 03:23:51;;;;;;;2.13;1.35;;;;;;;;;;5109985;28;20080;-83
2023/03/09 03:26:17;;;;;;;1.27;1.17;;;;;;;;;;5090256;28;20087;-83
2023/03/09 03:28:43;;;;;;;3.25;1.67;;;;;;;;;;5088876;28;20027;-82
2023/03/09 03:31:09;;;;;;;2.55;1.17;;;;;;;;;;5086581;28;20020;-83
2023/03/09 03:33:35;;;;;;;2.92;1.65;;;;;;;;;;5086787;28;20027;-83
2023/03/09 03:36:00;;;;;;;2.58;1.10;;;;;;;;;;5084991;28;20024;-83
2023/03/09 03:38:26;;;;;;;1.27;1.15;;;;;;;;;;5083201;28;20066;-82
2023/03/09 03:40:51;;;;;;;3.10;1.45;;;;;;;;;;5082956;28;20510;-82
2023/03/09 03:43:16;;;;;;;0.95;0.85;;;;;;;;;;5090982;28;20043;-82
2023/03/09 03:45:42;;;;;;;1.00;0.85;;;;;;;;;;5089946;28;20089;-83
2023/03/09 03:48:07;;;;;;;1.75;0.98;;;;;;;;;;5090301;28;20414;-83
2023/03/09 03:50:33;;;;;;;0.88;0.82;;;;;;;;;;5087677;28;20048;-84
2023/03/09 03:52:58;;;;;;;2.25;1.30;;;;;;;;;;5088486;28;20043;-84
2023/03/09 03:55:27;;;;;;;1.65;1.00;;;;;;;;;;5094077;28;20027;-83
2023/03/09 03:57:52;;;;;;;1.10;0.93;;;;;;;;;;5108809;28;20039;-85
2023/03/09 04:00:20;;;;;;;4.47;1.55;;;;;;;;;;5093250;28;20024;-85
2023/03/09 04:02:46;;;;;;;4.05;1.10;;;;;;;;;;5107349;28;20024;-83
2023/03/09 04:05:12;;;;;;;2.80;1.55;;;;;;;;;;5089167;28;20107;-82
2023/03/09 04:07:38;;;;;;;1.65;1.55;;;;;;;;;;5085014;28;20032;-82
2023/03/09 04:10:04;;;;;;;2.35;1.73;;;;;;;;;;5088943;28;20090;-83
2023/03/09 04:12:29;;;;;;;0.93;0.88;;;;;;;;;;5085740;28;20027;-83
2023/03/09 04:14:55;;;;;;;2.47;1.23;;;;;;;;;;5085222;28;20390;-85
2023/03/09 04:17:20;;;;;;;1.10;1.00;;;;;;;;;;5091323;28;20020;-84
2023/03/09 04:19:46;;;;;;;2.08;1.17;;;;;;;;;;5091052;28;20031;-85
2023/03/09 04:22:11;;;;;;;0.40;0.38;;;;;;;;;;5087578;28;20173;-84
2023/03/09 04:24:36;;;;;;;3.22;1.38;;;;;;;;;;5088138;28;20020;-85
2023/03/09 04:27:02;;;;;;;2.00;1.20;;;;;;;;;;5088094;28;20039;-84
2023/03/09 04:29:27;;;;;;;3.58;1.38;;;;;;;;;;5087946;28;20029;-85
2023/03/09 04:31:53;;;;;;;1.85;1.35;;;;;;;;;;5087312;28;20072;-83
2023/03/09 04:34:18;;;;;;;1.08;1.05;;;;;;;;;;5085537;28;20039;-84
2023/03/09 04:36:44;;;;;;;3.15;1.52;;;;;;;;;;5087107;28;20020;-84
2023/03/09 04:39:09;;;;;;;2.50;1.92;;;;;;;;;;5086359;28;20028;-84
2023/03/09 04:41:35;;;;;;;1.45;1.27;;;;;;;;;;5086017;28;20025;-84
2023/03/09 04:44:00;;;;;;;1.10;0.90;;;;;;;;;;5085420;28;20392;-83
2023/03/09 04:46:26;;;;;;;1.77;1.25;;;;;;;;;;5091367;28;20102;-85
2023/03/09 04:48:52;;;;;;;2.22;1.67;;;;;;;;;;5084309;28;20051;-84
2023/03/09 04:51:17;;;;;;;0.82;0.82;;;;;;;;;;5084495;28;20032;-83
2023/03/09 04:53:43;;;;;;;2.38;1.48;;;;;;;;;;5089333;28;20048;-85
2023/03/09 04:56:08;;;;;;;5.13;1.83;;;;;;;;;;5088351;28;20476;-83
2023/03/09 04:58:34;;;;;;;1.48;1.10;;;;;;;;;;5085975;28;20031;-84
2023/03/09 05:01:00;;;;;;;2.83;1.70;;;;;;;;;;5083995;28;20100;-81
2023/03/09 05:03:27;;;;;;;1.05;0.98;;;;;;;;;;5085118;28;20561;-83
2023/03/09 05:05:52;;;;;;;0.65;0.65;;;;;;;;;;5081199;28;20071;-82
2023/03/09 05:08:18;;;;;;;2.55;1.38;;;;;;;;;;5085853;28;20059;-81
2023/03/09 05:10:43;;;;;;;1.25;1.15;;;;;;;;;;5084190;28;20025;-83
2023/03/09 05:13:08;;;;;;;1.52;1.23;;;;;;;;;;5087740;28;20032;-82
2023/03/09 05:15:36;;;;;;;1.67;1.20;;;;;;;;;;5088745;28;20045;-82
2023/03/09 05:18:02;;;;;;;1.58;1.42;;;;;;;;;;5082332;28;20081;-82
2023/03/09 05:20:27;;;;;;;2.60;1.23;;;;;;;;;;5082044;28;20135;-83
2023/03/09 05:22:54;;;;;;;0.82;0.82;;;;;;;;;;5090205;28;20028;-83
2023/03/09 05:25:20;;;;;;;1.05;0.82;;;;;;;;;;5085786;28;20027;-82
2023/03/09 05:27:45;;;;;;;2.00;1.73;;;;;;;;;;5086809;28;20149;-82
2023/03/09 05:30:12;;;;;;;1.40;1.20;;;;;;;;;;5084513;28;20051;-81
2023/03/09 05:32:37;;;;;;;2.97;1.20;;;;;;;;;;5079007;28;20047;-82
2023/03/09 05:35:03;;;;;;;3.20;1.80;;;;;;;;;;5082406;28;20028;-85
2023/03/09 05:37:28;;;;;;;1.48;1.08;;;;;;;;;;5083312;28;20036;-87
2023/03/09 05:39:53;;;;;;;3.08;1.65;;;;;;;;;;5088282;28;20032;-86
2023/03/09 05:42:19;;;;;;;3.05;1.13;;;;;;;;;;5086090;28;20450;-85
2023/03/09 05:44:44;;;;;;;3.35;1.20;;;;;;;;;;5080522;28;20032;-85
2023/03/09 05:47:10;;;;;;;1.63;0.98;;;;;;;;;;5090496;28;20111;-86
2023/03/09 05:49:35;;;;;;;1.30;0.85;;;;;;;;;;5078812;28;20025;-84
2023/03/09 05:52:00;;;;;;;2.95;1.35;;;;;;;;;;5084760;28;20089;-85
2023/03/09 05:54:26;;;;;;;1.58;0.95;;;;;;;;;;5085275;28;20463;-85
2023/03/09 05:56:56;;;;;;;1.13;1.00;;;;;;;;;;5087107;28;20079;-84
2023/03/09 05:59:21;;;;;;;1.77;1.27;;;;;;;;;;5083317;28;20028;-79
2023/03/09 06:01:47;;;;;;;1.77;0.90;;;;;;;;;;5080981;28;20098;-82
2023/03/09 06:04:12;;;;;;;8.77;1.20;;;;;;;;;;5077908;28;20379;-82
2023/03/09 06:06:37;;;;;;;2.58;1.10;;;;;;;;;;5083562;28;20058;-81
2023/03/09 06:09:03;;;;;;;2.17;1.05;;;;;;;;;;5084932;28;20472;-82
2023/03/09 06:11:28;;;;;;;1.15;0.60;;;;;;;;;;5081376;28;20380;-82
2023/03/09 06:13:54;;;;;;;1.73;1.10;;;;;;;;;;5084718;28;20081;-82
2023/03/09 06:16:21;;;;;;;0.88;0.73;;;;;;;;;;5084617;28;20054;-81
2023/03/09 06:18:46;;;;;;;1.95;1.02;;;;;;;;;;5082187;28;20031;-81
2023/03/09 06:21:13;;;;;;;3.38;1.70;;;;;;;;;;5085789;28;20035;-81
2023/03/09 06:23:39;;;;;;;0.98;0.80;;;;;;;;;;5088332;28;20043;-84
2023/03/09 06:26:06;;;;;;;1.08;0.98;;;;;;;;;;5101299;28;20479;-80
2023/03/09 06:28:32;;;;;;;1.65;0.98;;;;;;;;;;5089912;28;20056;-85
2023/03/09 06:30:58;;;;;;;1.10;0.70;;;;;;;;;;5090780;28;20464;-83
2023/03/09 06:33:23;;;;;;;1.10;0.75;;;;;;;;;;5088250;28;20040;-85
2023/03/09 06:35:49;;;;;;;2.38;1.15;;;;;;;;;;5086699;28;20111;-80
2023/03/09 06:38:14;;;;;;;5.20;2.88;;;;;;;;;;5089533;28;20052;-86
2023/03/09 06:40:39;;;;;;;1.65;1.02;;;;;;;;;;5086015;28;20036;-80
2023/03/09 06:43:06;;;;;;;4.78;1.75;;;;;;;;;;5084744;28;20399;-82
2023/03/09 06:45:31;;;;;;;2.08;1.52;;;;;;;;;;5085257;28;20024;-80
2023/03/09 06:47:57;;;;;;;3.55;2.67;;;;;;;;;;5085826;28;20489;-83
2023/03/09 06:50:24;;;;;;;5.40;1.67;;;;;;;;;;5090801;28;20022;-83
2023/03/09 06:52:50;;;;;;;2.30;1.38;;;;;;;;;;5087590;28;20027;-83
2023/03/09 06:55:15;;;;;;;2.40;1.70;;;;;;;;;;5083824;28;20361;-81
2023/03/09 06:57:41;;;;;;;2.22;1.73;;;;;;;;;;5086838;28;20428;-82
2023/03/09 07:00:09;;;;;;;1.60;1.23;;;;;;;;;;5082849;28;20111;-84
2023/03/09 07:02:34;;;;;;;3.75;1.13;;;;;;;;;;5089343;28;20506;-83
2023/03/09 07:04:59;;;;;;;0.90;0.90;;;;;;;;;;5088455;28;20027;-85
2023/03/09 07:07:25;;;;;;;4.13;2.45;;;;;;;;;;5105123;28;20059;-86
2023/03/09 07:09:50;;;;;;;3.35;1.40;;;;;;;;;;5090336;28;20052;-82
2023/03/09 07:12:16;;;;;;;2.03;1.60;;;;;;;;;;5089046;28;20036;-81
2023/03/09 07:14:41;;;;;;;4.15;1.48;;;;;;;;;;5084566;28;20035;-82
2023/03/09 07:17:12;;;;;;;1.45;1.35;;;;;;;;;;5088611;28;20035;-82
2023/03/09 07:19:37;;;;;;;1.17;1.08;;;;;;;;;;5090142;28;20024;-82
2023/03/09 07:22:02;;;;;;;2.63;1.45;;;;;;;;;;5082752;28;20031;-81
2023/03/09 07:24:28;;;;;;;1.40;1.05;;;;;;;;;;5087568;28;20028;-82
2023/03/09 07:26:53;;;;;;;1.63;1.42;;;;;;;;;;5088909;28;20440;-81
2023/03/09 07:29:19;;;;;;;2.75;1.75;;;;;;;;;;5077420;28;20031;-82
2023/03/09 07:31:45;;;;;;;6.43;1.33;;;;;;;;;;5083507;28;20044;-81
2023/03/09 07:34:11;;;;;;;3.13;1.52;;;;;;;;;;5081598;28;20027;-82
2023/03/09 07:36:36;;;;;;;3.45;1.75;;;;;;;;;;5085097;28;20028;-82
2023/03/09 07:39:02;;;;;;;0.98;0.70;;;;;;;;;;5091166;28;20724;-81
2023/03/09 07:41:27;;;;;;;1.42;1.33;;;;;;;;;;5089128;28;20540;-81
2023/03/09 07:43:53;;;;;;;1.42;0.90;;;;;;;;;;5087133;28;20035;-81
2023/03/09 07:46:18;;;;;;;0.75;0.45;;;;;;;;;;5090062;28;20110;-81
2023/03/09 07:48:45;;;;;;;4.03;1.38;;;;;;;;;;5085912;28;20392;-81
2023/03/09 07:51:11;;;;;;;6.00;1.25;;;;;;;;;;5108164;28;20020;-82
2023/03/09 07:53:39;;;;;;;4.03;2.50;;;;;;;;;;5086635;28;20463;-82
2023/03/09 07:56:07;;;;;;;2.25;1.90;;;;;;;;;;5086382;28;20024;-82
2023/03/09 07:58:34;;;;;;;2.45;1.52;;;;;;;;;;5086831;28;20027;-82
2023/03/09 08:01:01;;;;;;;4.45;1.33;;;;;;;;;;5080127;28;20074;-81
2023/03/09 08:03:27;;;;;;;1.67;1.05;;;;;;;;;;5081160;28;20538;-81
2023/03/09 08:05:55;;;;;;;5.53;1.52;;;;;;;;;;5085460;28;20103;-81
2023/03/09 08:08:27;;;;;;;1.73;1.50;;;;;;;;;;5087503;28;20024;-80
2023/03/09 08:10:54;;;;;;;3.08;1.48;;;;;;;;;;5080745;28;20016;-82
2023/03/09 08:13:21;;;;;;;1.55;0.98;;;;;;;;;;5081412;28;20447;-81
2023/03/09 08:15:48;;;;;;;1.55;1.15;;;;;;;;;;5084613;28;20032;-82
2023/03/09 08:18:14;;;;;;;1.08;0.93;;;;;;;;;;5085555;28;20032;-81
2023/03/09 08:20:40;;;;;;;1.90;1.40;;;;;;;;;;5084525;28;20383;-81
2023/03/09 08:23:06;;;;;;;2.17;1.35;;;;;;;;;;5084258;28;20051;-81
2023/03/09 08:25:31;;;;;;;4.13;1.50;;;;;;;;;;5085160;28;20028;-81
2023/03/09 08:27:58;;;;;;;3.53;1.80;;;;;;;;;;5084082;28;20047;-81
2023/03/09 08:30:23;;;;;;;3.45;1.63;;;;;;;;;;5085921;28;20063;-83
2023/03/09 08:32:51;;;;;;;1.60;1.30;;;;;;;;;;5080917;28;20064;-81
2023/03/09 08:35:22;;;;;;;2.42;1.45;;;;;;;;;;5087438;28;20024;-82
2023/03/09 08:37:48;;;;;;;1.95;1.38;;;;;;;;;;5085986;28;20502;-81
2023/03/09 08:40:15;;;;;;;2.08;1.60;;;;;;;;;;5083432;28;20020;-82
2023/03/09 08:42:41;;;;;;;2.45;1.50;;;;;;;;;;5083215;28;20028;-80
2023/03/09 08:45:07;;;;;;;1.90;1.42;;;;;;;;;;5080177;28;20036;-82
2023/03/09 08:47:33;;;;;;;3.42;1.92;;;;;;;;;;5085284;28;20032;-78
2023/03/09 08:49:58;;;;;;;2.10;1.38;;;;;;;;;;5084992;28;20511;-81
2023/03/09 08:52:24;;;;;;;2.33;1.52;;;;;;;;;;5080669;28;20020;-84
2023/03/09 08:54:50;;;;;;;3.28;1.48;;;;;;;;;;5084259;28;20027;-82
2023/03/09 08:57:16;;;;;;;1.55;1.45;;;;;;;;;;5083016;28;20378;-81
2023/03/09 08:59:42;;;;;;;11.68;1.55;;;;;;;;;;5081793;28;20060;-81
2023/03/09 09:02:14;;;;;;;3.58;1.55;;;;;;;;;;5076379;28;20032;-80
2023/03/09 09:04:44;;;;;;;3.08;1.50;;;;;;;;;;5080482;28;20024;-78
2023/03/09 09:07:11;;;;;;;3.25;1.77;;;;;;;;;;5081904;28;20034;-80
2023/03/09 09:09:37;;;;;;;2.05;1.30;;;;;;;;;;5084483;28;20028;-80
2023/03/09 09:12:02;;;;;;;1.35;1.02;;;;;;;;;;5078656;28;20047;-80
2023/03/09 09:14:28;;;;;;;3.30;1.77;;;;;;;;;;5084698;28;20103;-80
2023/03/09 09:16:53;;;;;;;1.42;1.20;;;;;;;;;;5080153;28;20039;-82
2023/03/09 09:19:19;;;;;;;1.88;1.20;;;;;;;;;;5085530;28;20054;-81
2023/03/09 09:21:44;;;;;;;1.02;0.80;;;;;;;;;;5080786;28;20028;-81
2023/03/09 09:24:10;;;;;;;1.83;1.23;;;;;;;;;;5080148;28;20088;-79
2023/03/09 09:26:35;;;;;;;2.05;1.10;;;;;;;;;;5087213;28;20032;-78
2023/03/09 09:29:02;;;;;;;2.28;1.10;;;;;;;;;;5087742;28;20031;-79
2023/03/09 09:31:28;;;;;;;4.88;1.40;;;;;;;;;;5085719;28;20044;-80
2023/03/09 09:33:53;;;;;;;1.98;1.40;;;;;;;;;;5085231;28;20070;-80
2023/03/09 09:36:19;;;;;;;3.08;1.27;;;;;;;;;;5081869;28;20491;-80
2023/03/09 09:38:45;;;;;;;1.55;1.15;;;;;;;;;;5083977;28;20028;-77
2023/03/09 09:41:37;;;;;;;1.23;0.98;;;;;;;;;;5078760;28;20024;-78
2023/03/09 09:44:08;;;;;;;3.20;0.75;;;;;;;;;;5083710;28;20043;-78
2023/03/09 09:46:35;;;;;;;1.15;1.00;;;;;;;;;;5079552;28;20047;-79
2023/03/09 09:49:03;;;;;;;2.22;1.25;;;;;;;;;;5080210;28;20024;-80
2023/03/09 09:51:40;;;;;;;2.92;1.05;;;;;;;;;;5083749;28;20029;-78
2023/03/09 09:54:40;;;;;;;1.33;0.88;;;;;;;;;;5083444;28;20128;-77
2023/03/09 09:57:21;;;;;;;1.50;1.00;;;;;;;;;;5080721;28;20024;-79
2023/03/09 09:59:56;;;;;;;0.80;0.70;;;;;;;;;;5084411;28;20464;-80
2023/03/09 10:02:39;;;;;;;14.90;1.08;;;;;;;;;;5082988;28;20032;-80
2023/03/09 10:05:42;;;;;;;0.43;0.35;;;;;;;;;;5102654;28;20054;-79
2023/03/09 10:08:35;;;;;;;1.55;0.77;;;;;;;;;;5079479;28;20029;-80
2023/03/09 10:11:21;;;;;;;0.40;0.40;;;;;;;;;;5084253;28;20034;-80
2023/03/09 10:13:57;;;;;;;1.10;0.75;;;;;;;;;;5083780;28;20064;-79
2023/03/09 10:16:27;;;;;;;0.70;0.55;;;;;;;;;;5084020;28;20469;-80
2023/03/09 10:18:57;;;;;;;;;;;;;;;;;;5084646;28;20430;-80
2023/03/09 10:21:28;;;;;;;0.30;0.30;;;;;;;;;;5083177;28;19920;-79
2023/03/09 10:23:56;;;;;;;1.08;0.50;;;;;;;;;;5082652;28;20028;-78
2023/03/09 10:26:30;;;;;;;0.20;0.20;;;;;;;;;;5081508;28;20491;-80
2023/03/09 10:29:03;;;;;;;0.30;0.30;;;;;;;;;;5078947;28;20475;-78
2023/03/09 10:31:39;;;;;;;0.38;0.30;;;;;;;;;;5086706;28;20036;-78
2023/03/09 10:34:14;;;;;;;0.63;0.50;;;;;;;;;;5087563;28;20551;-80
2023/03/09 10:37:10;;;;;;;1.52;0.30;;;;;;;;;;5103022;28;20035;-78
2023/03/09 10:39:43;;;;;;;0.60;0.50;;;;;;;;;;5084884;28;20384;-80
2023/03/09 10:42:25;;;;;;;0.30;0.30;;;;;;;;;;5083174;28;20032;-83
2023/03/09 10:44:58;;;;;;;2.85;0.30;;;;;;;;;;5082751;28;20585;-86
2023/03/09 10:47:23;;;;;;;0.22;0.22;;;;;;;;;;5083874;28;20551;-84
2023/03/09 10:50:09;;;;;;;0.38;0.30;;;;;;;;;;5082184;28;20024;-82
2023/03/09 10:52:34;;;;;;;1.20;0.75;;;;;;;;;;5084012;28;20234;-82
2023/03/09 10:55:22;;;;;;;0.30;0.20;;;;;;;;;;5083406;28;20474;-82
2023/03/09 10:57:55;;;;;;;0.15;0.15;;;;;;;;;;5085868;28;20480;-84
2023/03/09 11:00:21;;;;;;;1.27;0.32;;;;;;;;;;5083512;28;20071;-84
2023/03/09 11:02:56;;;;;;;4.53;0.95;;;;;;;;;;5086446;28;20066;-81
2023/03/09 11:05:26;;;;;;;0.30;0.30;;;;;;;;;;5099099;28;20024;-83
2023/03/09 11:07:57;;;;;;;0.45;0.22;;;;;;;;;;5089726;28;20008;-84
2023/03/09 11:10:28;;;;;;;0.50;0.30;;;;;;;;;;5089232;28;20115;-85
2023/03/09 11:12:55;;;;;;;1.05;0.95;;;;;;;;;;5087545;28;20031;-86
2023/03/09 11:15:28;;;;;;;0.40;0.40;;;;;;;;;;5085260;28;20032;-84
2023/03/09 11:17:54;;;;;;;0.40;0.30;;;;;;;;;;5103212;28;20031;-80
2023/03/09 11:20:38;;;;;;;0.10;0.10;;;;;;;;;;5081276;28;20541;-79
2023/03/09 11:23:28;;;;;;;0.15;0.15;;;;;;;;;;5084882;28;20024;-80
2023/03/09 11:26:12;;;;;;;0.70;0.40;;;;;;;;;;5080551;28;20036;-80
2023/03/09 11:28:44;;;;;;;0.52;0.43;;;;;;;;;;5087500;28;20085;-81
2023/03/09 11:31:15;;;;;;;0.75;0.40;;;;;;;;;;5090282;28;20478;-79
2023/03/09 11:33:42;;;;;;;0.73;0.70;;;;;;;;;;5079362;28;20391;-78
2023/03/09 11:36:14;;;;;;;1.05;0.50;;;;;;;;;;5083176;28;20024;-79
2023/03/09 11:38:43;;;;;;;0.40;0.40;;;;;;;;;;5084946;28;20085;-79
2023/03/09 11:41:28;;;;;;;1.08;0.50;;;;;;;;;;5087376;28;20081;-78
2023/03/09 11:44:02;;;;;;;0.57;0.40;;;;;;;;;;5105828;28;20043;-80
2023/03/09 11:46:28;;;;;;;0.55;0.43;;;;;;;;;;5085728;28;20457;-80
2023/03/09 11:49:08;;;;;;;0.68;0.40;;;;;;;;;;5081118;28;20032;-81
2023/03/09 11:51:43;;;;;;;2.05;0.40;;;;;;;;;;5084924;28;20022;-80
2023/03/09 11:54:17;;;;;;;0.32;0.30;;;;;;;;;;5107733;28;20040;-81
2023/03/09 11:56:45;;;;;;;1.58;0.47;;;;;;;;;;5087603;28;20028;-80
2023/03/09 11:59:17;;;;;;;0.10;0.10;;;;;;;;;;5091498;28;20034;-81
2023/03/09 12:01:47;;;;;;;0.85;0.40;;;;;;;;;;5084206;28;20024;-81
2023/03/09 12:04:15;;;;;;;0.35;0.30;;;;;;;;;;5087768;28;20535;-81
2023/03/09 12:06:48;;;;;;;1.23;0.40;;;;;;;;;;5084658;28;20024;-81
2023/03/09 12:09:44;;;;;;;0.47;0.43;;;;;;;;;;5078127;28;20633;-80
2023/03/09 12:12:12;;;;;;;0.55;0.40;;;;;;;;;;5079939;28;20028;-80
2023/03/09 12:14:47;;;;;;;0.20;0.20;;;;;;;;;;5085348;28;20099;-80
2023/03/09 12:17:20;;;;;;;0.30;0.30;;;;;;;;;;5087192;28;20460;-82
2023/03/09 12:19:49;;;;;;;5.45;0.60;;;;;;;;;;5085271;28;20036;-82
2023/03/09 12:22:34;;;;;;;0.90;0.50;;;;;;;;;;5088101;28;20031;-81
2023/03/09 12:25:02;;;;;;;0.20;0.20;;;;;;;;;;5083910;28;20263;-79
2023/03/09 12:27:31;;;;;;;0.10;0.10;;;;;;;;;;5088076;28;20093;-81
2023/03/09 12:30:09;;;;;;;2.75;0.30;;;;;;;;;;5083801;28;20497;-80
2023/03/09 12:32:39;;;;;;;5.18;0.50;;;;;;;;;;5085359;28;20396;-81
2023/03/09 12:35:10;;;;;;;2.05;0.55;;;;;;;;;;5085544;28;20035;-80
2023/03/09 12:37:36;;;;;;;0.30;0.30;;;;;;;;;;5085000;28;20020;-79
2023/03/09 12:40:10;;;;;;;0.35;0.32;;;;;;;;;;5086899;28;20028;-81
2023/03/09 12:42:38;;;;;;;1.45;0.40;;;;;;;;;;5076015;28;20029;-80
2023/03/09 12:45:16;;;;;;;0.80;0.35;;;;;;;;;;5076412;28;20027;-82
2023/03/09 12:48:15;;;;;;;0.30;0.30;;;;;;;;;;5083599;28;20415;-81
2023/03/09 12:50:45;;;;;;;0.52;0.30;;;;;;;;;;5076749;28;20032;-81
2023/03/09 12:53:12;;;;;;;1.38;0.35;;;;;;;;;;5078276;28;20111;-83
2023/03/09 12:55:37;;;;;;;0.57;0.50;;;;;;;;;;5084001;28;20116;-81
2023/03/09 12:58:19;;;;;;;0.47;0.30;;;;;;;;;;5089065;28;20446;-82
2023/03/09 13:01:01;;;;;;;0.65;0.40;;;;;;;;;;5084840;28;20019;-82
2023/03/09 13:04:12;;;;;;;0.32;0.32;;;;;;;;;;5108335;28;20031;-83
2023/03/09 13:06:42;;;;;;;1.00;0.60;;;;;;;;;;5088612;28;20044;-83
2023/03/09 13:09:14;;;;;;;0.32;0.32;;;;;;;;;;5084254;28;20031;-82
2023/03/09 13:11:42;;;;;;;0.65;0.50;;;;;;;;;;5103613;28;20099;-82
2023/03/09 13:14:26;;;;;;;0.40;0.40;;;;;;;;;;5082824;28;20040;-82
2023/03/09 13:16:58;;;;;;;0.57;0.52;;;;;;;;;;5077136;28;20365;-81
2023/03/09 13:19:23;;;;;;;0.38;0.30;;;;;;;;;;5079553;28;20412;-85
2023/03/09 13:21:57;;;;;;;0.55;0.20;;;;;;;;;;5082200;28;20024;-82
2023/03/09 13:24:34;;;;;;;0.80;0.40;;;;;;;;;;5082852;28;20072;-82
2023/03/09 13:27:23;;;;;;;0.50;0.40;;;;;;;;;;5078790;28;20020;-83
2023/03/09 13:29:57;;;;;;;1.08;0.52;;;;;;;;;;5085433;28;20089;-83
2023/03/09 13:32:30;;;;;;;1.25;0.43;;;;;;;;;;5088288;28;20047;-81
2023/03/09 13:34:58;;;;;;;0.90;0.50;;;;;;;;;;5077095;28;20040;-82
2023/03/09 13:37:28;;;;;;;0.37;0.37;;;;;;;;;;5086683;28;20399;-81
2023/03/09 13:40:02;;;;;;;0.63;0.40;;;;;;;;;;5078137;28;20273;-82
2023/03/09 13:42:29;;;;;;;1.30;0.70;;;;;;;;;;5082721;28;20367;-81
2023/03/09 13:44:55;;;;;;;0.40;0.38;;;;;;;;;;5077209;28;20032;-83
2023/03/09 13:47:27;;;;;;;1.10;0.30;;;;;;;;;;5080594;28;20024;-83
2023/03/09 13:49:55;;;;;;;0.52;0.50;;;;;;;;;;5082038;28;20127;-83
2023/03/09 13:52:21;;;;;;;1.60;0.43;;;;;;;;;;5081709;28;20029;-84
2023/03/09 13:55:16;;;;;;;0.43;0.32;;;;;;;;;;5081975;28;20070;-83
2023/03/09 13:57:41;;;;;;;0.40;0.40;;;;;;;;;;5086239;28;20084;-83
2023/03/09 14:00:20;;;;;;;0.47;0.47;;;;;;;;;;5085300;28;20024;-82
2023/03/09 14:02:45;;;;;;;1.15;0.63;;;;;;;;;;5087427;28;20020;-82
2023/03/09 14:05:14;;;;;;;0.98;0.45;;;;;;;;;;5079478;28;20024;-84
2023/03/09 14:07:46;;;;;;;0.35;0.35;;;;;;;;;;5085420;28;20044;-82
2023/03/09 14:10:24;;;;;;;0.98;0.30;;;;;;;;;;5084451;28;20089;-82
2023/03/09 14:13:18;;;;;;;1.02;0.60;;;;;;;;;;5089114;28;20456;-82
2023/03/09 14:15:57;;;;;;;0.30;0.30;;;;;;;;;;5079310;28;20040;-81
2023/03/09 14:18:33;;;;;;;0.73;0.50;;;;;;;;;;5085822;28;20417;-81
2023/03/09 14:20:59;;;;;;;0.95;0.40;;;;;;;;;;5080486;28;20496;-82
2023/03/09 14:23:42;;;;;;;0.65;0.30;;;;;;;;;;5086298;28;20024;-82
2023/03/09 14:26:08;;;;;;;1.00;0.45;;;;;;;;;;5074443;28;20029;-80
2023/03/09 14:28:40;;;;;;;1.27;0.45;;;;;;;;;;5083703;28;20025;-83
2023/03/09 14:31:21;;;;;;;1.00;0.50;;;;;;;;;;5083286;28;20047;-81
2023/03/09 14:33:54;;;;;;;1.15;0.50;;;;;;;;;;5084740;28;20043;-82
2023/03/09 14:36:20;;;;;;;1.45;0.63;;;;;;;;;;5083133;28;20452;-80
2023/03/09 14:38:54;;;;;;;0.47;0.30;;;;;;;;;;5080819;28;20051;-82
2023/03/09 14:41:22;;;;;;;0.52;0.52;;;;;;;;;;5081449;28;20094;-79
2023/03/09 14:43:48;;;;;;;0.45;0.35;;;;;;;;;;5082211;28;20387;-81
2023/03/09 14:46:18;;;;;;;0.30;0.30;;;;;;;;;;5089383;28;20132;-81
2023/03/09 14:49:01;;;;;;;;;;;;;;;;;;5087595;28;20388;-82
2023/03/09 14:51:29;;;;;;;2.53;0.73;;;;;;;;;;5087810;28;19915;-81
2023/03/09 14:54:02;;;;;;;0.75;0.40;;;;;;;;;;5083698;28;20036;-80